Time;durP1;ratioP1;P1;durP2;ratioP2;P2;SDS_P1;SDS_P2;PMS_P1;PMS_P2;Temp;Humidity;BMP_temperature;BMP_pressure;BME280_temperature;BME280_humidity;BME280_pressure;Samples;Min_cycle;Max_cycle;Signal;HPM_P1;HPM_P2
2023/04/12 00:01:48;;;;;;;5.05;1.60;;;;;;;;;;5101318;28;20094;-70
2023/04/12 00:04:15;;;;;;;4.18;1.23;;;;;;;;;;5101305;28;20040;-70
2023/04/12 00:06:41;;;;;;;;;;;;;;;;;;5101628;28;20488;-70
2023/04/12 00:09:07;;;;;;;3.20;1.40;;;;;;;;;;5101679;28;19974;-70
2023/04/12 00:11:35;;;;;;;5.55;1.60;;;;;;;;;;5067530;28;20055;-70
2023/04/12 00:14:01;;;;;;;3.60;1.40;;;;;;;;;;5084435;28;20492;-70
2023/04/12 00:16:27;;;;;;;5.75;1.40;;;;;;;;;;5101720;28;20098;-70
2023/04/12 00:18:54;;;;;;;6.68;1.85;;;;;;;;;;5067752;28;20044;-70
2023/04/12 00:21:22;;;;;;;6.22;1.83;;;;;;;;;;5067703;28;20122;-70
2023/04/12 00:23:48;;;;;;;4.72;1.42;;;;;;;;;;5101744;28;20036;-70
2023/04/12 00:26:15;;;;;;;3.38;1.33;;;;;;;;;;5067670;28;20036;-71
2023/04/12 00:28:41;;;;;;;;;;;;;;;;;;5067831;28;20040;-70
2023/04/12 00:31:07;;;;;;;8.18;1.55;;;;;;;;;;5067375;28;19921;-70
2023/04/12 00:33:36;;;;;;;5.53;1.40;;;;;;;;;;5084427;28;20132;-70
2023/04/12 00:36:02;;;;;;;6.65;1.67;;;;;;;;;;5101297;28;20045;-70
2023/04/12 00:38:28;;;;;;;6.20;1.40;;;;;;;;;;5100893;28;20538;-70
2023/04/12 00:40:55;;;;;;;5.72;1.27;;;;;;;;;;5101120;28;20444;-70
2023/04/12 00:43:21;;;;;;;6.70;1.52;;;;;;;;;;5050404;28;20507;-70
2023/04/12 00:45:47;;;;;;;6.22;1.73;;;;;;;;;;5067477;28;20127;-70
2023/04/12 00:48:13;;;;;;;4.25;1.40;;;;;;;;;;5101037;28;20041;-70
2023/04/12 00:50:40;;;;;;;;;;;;;;;;;;5101937;28;20078;-70
2023/04/12 00:53:09;;;;;;;4.38;1.15;;;;;;;;;;5070750;28;20004;-70
2023/04/12 00:55:36;;;;;;;4.72;1.27;;;;;;;;;;5070439;28;20040;-70
2023/04/12 00:58:02;;;;;;;5.60;1.75;;;;;;;;;;5052303;28;20458;-70
2023/04/12 01:00:28;;;;;;;;;;;;;;;;;;5103147;28;20041;-71
2023/04/12 01:02:54;;;;;;;5.00;1.92;;;;;;;;;;5070566;28;20368;-71
2023/04/12 01:05:22;;;;;;;6.30;1.77;;;;;;;;;;5103800;28;20040;-71
2023/04/12 01:07:50;;;;;;;6.35;1.50;;;;;;;;;;5102692;28;20127;-71
2023/04/12 01:10:35;;;;;;;6.55;1.60;;;;;;;;;;5102687;28;20052;-71
2023/04/12 01:13:13;;;;;;;3.90;1.42;;;;;;;;;;5101036;28;20079;-70
2023/04/12 01:15:46;;;;;;;7.22;1.38;;;;;;;;;;5069194;28;20159;-70
2023/04/12 01:18:13;;;;;;;3.50;1.40;;;;;;;;;;5068445;28;20511;-71
2023/04/12 01:21:00;;;;;;;5.43;1.42;;;;;;;;;;5069220;28;20521;-71
2023/04/12 01:23:45;;;;;;;2.05;0.98;;;;;;;;;;5085875;28;20045;-70
2023/04/12 01:26:26;;;;;;;4.63;1.48;;;;;;;;;;5066710;28;20037;-70
2023/04/12 01:28:53;;;;;;;4.70;1.30;;;;;;;;;;5102374;28;20044;-70
2023/04/12 01:31:20;;;;;;;4.07;1.52;;;;;;;;;;5069753;28;20076;-70
2023/04/12 01:33:47;;;;;;;5.00;1.50;;;;;;;;;;5103868;28;20044;-70
2023/04/12 01:36:12;;;;;;;;;;;;;;;;;;5065975;28;20075;-71
2023/04/12 01:38:42;;;;;;;4.00;1.73;;;;;;;;;;5069536;28;20391;-70
2023/04/12 01:41:09;;;;;;;8.25;1.60;;;;;;;;;;5103230;28;20070;-70
2023/04/12 01:43:35;;;;;;;;;;;;;;;;;;5101625;28;20048;-70
2023/04/12 01:46:01;;;;;;;5.18;1.55;;;;;;;;;;5070001;28;19969;-70
2023/04/12 01:48:27;;;;;;;6.28;1.73;;;;;;;;;;5102681;28;20094;-70
2023/04/12 01:50:59;;;;;;;7.75;1.80;;;;;;;;;;5067025;28;20169;-70
2023/04/12 01:53:33;;;;;;;9.27;2.30;;;;;;;;;;5101511;28;20068;-70
2023/04/12 01:56:04;;;;;;;7.38;1.75;;;;;;;;;;5102282;28;20036;-70
2023/04/12 01:58:30;;;;;;;4.90;1.67;;;;;;;;;;5101822;28;20044;-70
2023/04/12 02:00:57;;;;;;;5.78;1.70;;;;;;;;;;5070319;28;20056;-70
2023/04/12 02:03:23;;;;;;;;;;;;;;;;;;5066861;28;20044;-71
2023/04/12 02:05:50;;;;;;;3.97;1.58;;;;;;;;;;5069469;28;20399;-71
2023/04/12 02:08:16;;;;;;;7.38;1.75;;;;;;;;;;5103601;28;20342;-71
2023/04/12 02:10:43;;;;;;;6.97;1.80;;;;;;;;;;5102172;28;20044;-71
2023/04/12 02:13:09;;;;;;;6.57;2.03;;;;;;;;;;5103201;28;20034;-71
2023/04/12 02:15:36;;;;;;;5.57;2.00;;;;;;;;;;5103311;28;20075;-71
2023/04/12 02:18:02;;;;;;;5.97;1.60;;;;;;;;;;5103400;28;20357;-71
2023/04/12 02:20:28;;;;;;;4.88;1.75;;;;;;;;;;5103198;28;20040;-71
2023/04/12 02:22:54;;;;;;;5.60;1.65;;;;;;;;;;5103472;28;20124;-71
2023/04/12 02:25:20;;;;;;;5.75;1.55;;;;;;;;;;5069386;28;20067;-71
2023/04/12 02:27:47;;;;;;;5.60;1.60;;;;;;;;;;5102990;28;20109;-71
2023/04/12 02:30:14;;;;;;;5.38;1.85;;;;;;;;;;5103034;28;20139;-71
2023/04/12 02:32:43;;;;;;;5.03;1.38;;;;;;;;;;5103420;28;20048;-71
2023/04/12 02:35:10;;;;;;;4.72;1.50;;;;;;;;;;5069226;28;20044;-71
2023/04/12 02:37:36;;;;;;;6.82;1.73;;;;;;;;;;5103201;28;20040;-71
2023/04/12 02:40:08;;;;;;;5.18;1.60;;;;;;;;;;5103085;28;20088;-71
2023/04/12 02:42:34;;;;;;;5.57;1.70;;;;;;;;;;5102994;28;20044;-71
2023/04/12 02:45:00;;;;;;;7.25;1.73;;;;;;;;;;5069317;28;20025;-71
2023/04/12 02:47:28;;;;;;;9.82;1.90;;;;;;;;;;5069109;28;20063;-71
2023/04/12 02:49:54;;;;;;;6.78;1.40;;;;;;;;;;5068955;28;20048;-71
2023/04/12 02:52:20;;;;;;;5.78;1.55;;;;;;;;;;5051910;28;20040;-71
2023/04/12 02:54:47;;;;;;;4.47;1.30;;;;;;;;;;5103032;28;20075;-71
2023/04/12 02:57:14;;;;;;;5.95;1.52;;;;;;;;;;5102684;28;20427;-71
2023/04/12 02:59:41;;;;;;;4.93;1.40;;;;;;;;;;5067283;28;20048;-71
2023/04/12 03:02:07;;;;;;;6.15;1.33;;;;;;;;;;5102225;28;20044;-71
2023/04/12 03:04:36;;;;;;;5.80;1.70;;;;;;;;;;5101905;28;20120;-70
2023/04/12 03:07:02;;;;;;;6.05;1.52;;;;;;;;;;5101694;28;20048;-71
2023/04/12 03:09:28;;;;;;;4.88;1.55;;;;;;;;;;5100918;28;20462;-71
2023/04/12 03:11:54;;;;;;;6.43;1.50;;;;;;;;;;5100843;28;20076;-71
2023/04/12 03:14:20;;;;;;;6.43;1.73;;;;;;;;;;5063953;28;20496;-71
2023/04/12 03:16:47;;;;;;;4.80;1.55;;;;;;;;;;5099884;28;20044;-71
2023/04/12 03:19:14;;;;;;;5.70;1.40;;;;;;;;;;5063931;28;20063;-71
2023/04/12 03:21:40;;;;;;;3.55;1.02;;;;;;;;;;5065582;28;20059;-71
2023/04/12 03:24:06;;;;;;;5.05;1.30;;;;;;;;;;5102072;28;20036;-71
2023/04/12 03:26:32;;;;;;;7.00;1.73;;;;;;;;;;5067767;28;20147;-71
2023/04/12 03:29:07;;;;;;;5.05;1.48;;;;;;;;;;5102288;28;20040;-71
2023/04/12 03:31:33;;;;;;;7.57;1.65;;;;;;;;;;5100064;28;20080;-71
2023/04/12 03:33:59;;;;;;;;;;;;;;;;;;5101902;28;20049;-71
2023/04/12 03:36:28;;;;;;;5.10;1.42;;;;;;;;;;5067161;28;20273;-71
2023/04/12 03:38:55;;;;;;;4.82;1.20;;;;;;;;;;5065359;28;20152;-71
2023/04/12 03:41:25;;;;;;;5.25;1.38;;;;;;;;;;5067117;28;20504;-71
2023/04/12 03:43:51;;;;;;;3.83;1.15;;;;;;;;;;5067790;28;20692;-71
2023/04/12 03:46:17;;;;;;;3.40;1.20;;;;;;;;;;5051067;28;20047;-71
2023/04/12 03:48:43;;;;;;;3.65;1.27;;;;;;;;;;5067612;28;20045;-71
2023/04/12 03:51:10;;;;;;;2.40;1.08;;;;;;;;;;5051302;28;20139;-71
2023/04/12 03:53:40;;;;;;;3.50;1.20;;;;;;;;;;5067957;28;20047;-71
2023/04/12 03:56:06;;;;;;;4.50;1.33;;;;;;;;;;5102025;28;20036;-71
2023/04/12 03:58:32;;;;;;;4.25;1.20;;;;;;;;;;5067607;28;20045;-71
2023/04/12 04:01:05;;;;;;;4.82;1.50;;;;;;;;;;5101861;28;20170;-71
2023/04/12 04:03:33;;;;;;;3.08;1.17;;;;;;;;;;5101676;28;20080;-71
2023/04/12 04:06:03;;;;;;;6.68;1.50;;;;;;;;;;5101225;28;20127;-71
2023/04/12 04:08:31;;;;;;;4.32;1.30;;;;;;;;;;5101526;28;20096;-71
2023/04/12 04:10:57;;;;;;;5.30;1.55;;;;;;;;;;5101774;28;20478;-71
2023/04/12 04:13:23;;;;;;;4.55;1.10;;;;;;;;;;5051037;28;20051;-71
2023/04/12 04:15:51;;;;;;;5.07;1.33;;;;;;;;;;5067825;28;20040;-71
2023/04/12 04:18:17;;;;;;;3.58;1.10;;;;;;;;;;5067368;28;20063;-70
2023/04/12 04:20:43;;;;;;;4.28;1.38;;;;;;;;;;5084431;28;20055;-70
2023/04/12 04:23:09;;;;;;;4.72;1.40;;;;;;;;;;5101466;28;20045;-70
2023/04/12 04:25:38;;;;;;;3.38;1.13;;;;;;;;;;5050848;28;20133;-70
2023/04/12 04:28:05;;;;;;;5.85;1.38;;;;;;;;;;5071361;28;20052;-70
2023/04/12 04:30:32;;;;;;;4.50;1.40;;;;;;;;;;5071324;28;20128;-70
2023/04/12 04:32:59;;;;;;;4.45;1.45;;;;;;;;;;5071780;28;20048;-71
2023/04/12 04:35:26;;;;;;;4.15;1.15;;;;;;;;;;5103711;28;20045;-70
2023/04/12 04:37:52;;;;;;;6.35;1.60;;;;;;;;;;5068995;28;20641;-70
2023/04/12 04:40:20;;;;;;;5.35;1.63;;;;;;;;;;5103700;28;20380;-70
2023/04/12 04:42:53;;;;;;;4.40;1.60;;;;;;;;;;5072040;28;20594;-70
2023/04/12 04:45:20;;;;;;;4.75;1.60;;;;;;;;;;5070283;28;20044;-70
2023/04/12 04:47:47;;;;;;;3.95;1.52;;;;;;;;;;5105305;28;20061;-70
2023/04/12 04:50:13;;;;;;;;;;;;;;;;;;5104899;28;20445;-70
2023/04/12 04:52:39;;;;;;;7.47;1.85;;;;;;;;;;5068842;28;19995;-70
2023/04/12 04:55:06;;;;;;;3.95;1.52;;;;;;;;;;5071191;28;20079;-70
2023/04/12 04:57:32;;;;;;;6.47;2.05;;;;;;;;;;5069079;28;20098;-70
2023/04/12 04:59:58;;;;;;;5.05;1.80;;;;;;;;;;5104841;28;20040;-70
2023/04/12 05:02:25;;;;;;;5.63;1.70;;;;;;;;;;5086409;28;20051;-71
2023/04/12 05:04:51;;;;;;;4.45;1.45;;;;;;;;;;5068529;28;20094;-71
2023/04/12 05:07:17;;;;;;;4.72;2.00;;;;;;;;;;5066084;28;20045;-71
2023/04/12 05:09:43;;;;;;;4.35;1.75;;;;;;;;;;5067983;28;20123;-70
2023/04/12 05:12:12;;;;;;;3.45;1.55;;;;;;;;;;5068826;28;20052;-71
2023/04/12 05:14:38;;;;;;;5.28;1.65;;;;;;;;;;5101854;28;20161;-71
2023/04/12 05:17:05;;;;;;;2.35;1.52;;;;;;;;;;5087042;28;20127;-72
2023/04/12 05:19:31;;;;;;;4.63;1.60;;;;;;;;;;5069691;28;20045;-70
2023/04/12 05:21:57;;;;;;;8.48;2.28;;;;;;;;;;5085066;28;20043;-70
2023/04/12 05:24:23;;;;;;;5.97;2.00;;;;;;;;;;5102442;28;20376;-70
2023/04/12 05:26:50;;;;;;;4.22;1.88;;;;;;;;;;5082829;28;20054;-70
2023/04/12 05:29:16;;;;;;;7.25;2.08;;;;;;;;;;5069683;28;20048;-70
2023/04/12 05:31:42;;;;;;;6.05;1.88;;;;;;;;;;5099939;28;20044;-71
2023/04/12 05:34:09;;;;;;;3.90;1.85;;;;;;;;;;5102070;28;20055;-71
2023/04/12 05:36:35;;;;;;;3.38;1.90;;;;;;;;;;5067499;28;20124;-71
2023/04/12 05:39:01;;;;;;;6.00;2.40;;;;;;;;;;5099201;28;20044;-71
2023/04/12 05:41:27;;;;;;;6.55;2.00;;;;;;;;;;5066112;28;20052;-71
2023/04/12 05:43:53;;;;;;;6.38;2.38;;;;;;;;;;5067976;28;20041;-71
2023/04/12 05:46:19;;;;;;;9.60;2.30;;;;;;;;;;5053475;28;20178;-70
2023/04/12 05:48:45;;;;;;;7.75;2.17;;;;;;;;;;5071386;28;20075;-71
2023/04/12 05:51:11;;;;;;;6.43;2.63;;;;;;;;;;5071266;28;20361;-70
2023/04/12 05:53:37;;;;;;;4.78;1.92;;;;;;;;;;5104104;28;20392;-70
2023/04/12 05:56:03;;;;;;;5.50;2.28;;;;;;;;;;5070636;28;20029;-71
2023/04/12 05:58:29;;;;;;;4.40;1.90;;;;;;;;;;5069802;28;20475;-71
2023/04/12 06:00:55;;;;;;;5.72;2.03;;;;;;;;;;5066994;28;20040;-70
2023/04/12 06:03:25;;;;;;;5.07;1.92;;;;;;;;;;5084007;28;20044;-70
2023/04/12 06:05:51;;;;;;;5.13;1.88;;;;;;;;;;5099734;28;20036;-71
2023/04/12 06:08:18;;;;;;;6.20;2.30;;;;;;;;;;5067812;28;20424;-70
2023/04/12 06:10:44;;;;;;;4.32;1.60;;;;;;;;;;5069460;28;20047;-71
2023/04/12 06:13:10;;;;;;;4.32;1.77;;;;;;;;;;5069673;28;20040;-70
2023/04/12 06:15:36;;;;;;;4.35;1.85;;;;;;;;;;5051282;28;20063;-70
2023/04/12 06:18:02;;;;;;;4.25;1.70;;;;;;;;;;5101104;28;20044;-69
2023/04/12 06:20:28;;;;;;;6.15;1.80;;;;;;;;;;5065648;28;20392;-70
2023/04/12 06:22:54;;;;;;;4.85;1.80;;;;;;;;;;5067768;28;20048;-71
2023/04/12 06:25:21;;;;;;;5.03;1.60;;;;;;;;;;5074171;28;20047;-71
2023/04/12 06:27:47;;;;;;;4.72;1.60;;;;;;;;;;5068395;28;20181;-70
2023/04/12 06:30:13;;;;;;;4.07;1.70;;;;;;;;;;5059014;28;20072;-71
2023/04/12 06:32:40;;;;;;;4.22;1.60;;;;;;;;;;5068709;28;20123;-71
2023/04/12 06:35:06;;;;;;;3.22;1.63;;;;;;;;;;5065265;28;20086;-71
2023/04/12 06:37:32;;;;;;;2.72;1.33;;;;;;;;;;5068986;28;20481;-71
2023/04/12 06:39:58;;;;;;;5.30;1.92;;;;;;;;;;5067606;28;20036;-69
2023/04/12 06:42:24;;;;;;;3.85;1.50;;;;;;;;;;5069594;28;20170;-70
2023/04/12 06:44:50;;;;;;;3.47;1.30;;;;;;;;;;5068963;28;20472;-70
2023/04/12 06:47:16;;;;;;;2.55;1.40;;;;;;;;;;5067652;28;20044;-71
2023/04/12 06:49:42;;;;;;;3.55;1.40;;;;;;;;;;5069434;28;20058;-71
2023/04/12 06:52:08;;;;;;;3.75;1.70;;;;;;;;;;5068258;28;20062;-71
2023/04/12 06:54:38;;;;;;;5.53;1.58;;;;;;;;;;5069347;28;20088;-71
2023/04/12 06:57:09;;;;;;;3.25;1.60;;;;;;;;;;5066039;28;20369;-70
2023/04/12 06:59:35;;;;;;;3.45;1.63;;;;;;;;;;5067709;28;20108;-71
2023/04/12 07:02:01;;;;;;;4.15;1.23;;;;;;;;;;5066161;28;20048;-69
2023/04/12 07:04:27;;;;;;;3.47;1.67;;;;;;;;;;5047272;28;20036;-70
2023/04/12 07:06:53;;;;;;;2.72;1.55;;;;;;;;;;5067859;28;20044;-71
2023/04/12 07:09:19;;;;;;;4.18;1.40;;;;;;;;;;5065553;28;20132;-71
2023/04/12 07:11:45;;;;;;;3.83;1.40;;;;;;;;;;5102605;28;20454;-70
2023/04/12 07:14:11;;;;;;;5.03;1.75;;;;;;;;;;5101284;28;20040;-71
2023/04/12 07:16:37;;;;;;;2.75;1.30;;;;;;;;;;5066475;28;20048;-70
2023/04/12 07:19:03;;;;;;;5.05;2.00;;;;;;;;;;5082161;28;20131;-71
2023/04/12 07:21:29;;;;;;;2.03;1.30;;;;;;;;;;5069031;28;20033;-71
2023/04/12 07:23:55;;;;;;;3.50;1.30;;;;;;;;;;5051793;28;20044;-70
2023/04/12 07:26:21;;;;;;;2.13;1.23;;;;;;;;;;5068628;28;20036;-70
2023/04/12 07:28:48;;;;;;;3.10;1.30;;;;;;;;;;5101921;28;20509;-70
2023/04/12 07:31:14;;;;;;;3.85;1.48;;;;;;;;;;5100311;28;20464;-70
2023/04/12 07:33:40;;;;;;;3.55;1.30;;;;;;;;;;5065657;28;20506;-71
2023/04/12 07:36:06;;;;;;;2.35;1.20;;;;;;;;;;5098082;28;20475;-71
2023/04/12 07:38:32;;;;;;;2.78;1.15;;;;;;;;;;5066507;28;20033;-71
2023/04/12 07:40:58;;;;;;;2.50;1.23;;;;;;;;;;5070255;28;20070;-71
2023/04/12 07:43:24;;;;;;;2.85;1.02;;;;;;;;;;5096044;28;20077;-71
2023/04/12 07:45:51;;;;;;;3.45;1.30;;;;;;;;;;5068879;28;20078;-71
2023/04/12 07:48:17;;;;;;;1.55;1.25;;;;;;;;;;5060355;28;20047;-71
2023/04/12 07:50:43;;;;;;;3.00;1.25;;;;;;;;;;5062417;28;20449;-71
2023/04/12 07:53:18;;;;;;;2.63;1.20;;;;;;;;;;5065378;28;20044;-70
2023/04/12 07:55:45;;;;;;;1.95;1.00;;;;;;;;;;5065430;28;20064;-70
2023/04/12 07:58:11;;;;;;;2.70;1.42;;;;;;;;;;5065327;28;20044;-70
2023/04/12 08:00:37;;;;;;;2.13;1.00;;;;;;;;;;5066745;28;20503;-70
2023/04/12 08:03:03;;;;;;;3.53;1.42;;;;;;;;;;5068594;28;20307;-70
2023/04/12 08:05:29;;;;;;;3.35;1.40;;;;;;;;;;5068204;28;20039;-70
2023/04/12 08:07:55;;;;;;;2.42;1.20;;;;;;;;;;5068832;28;20476;-70
2023/04/12 08:10:21;;;;;;;2.20;1.40;;;;;;;;;;5052553;28;20133;-70
2023/04/12 08:12:48;;;;;;;1.63;1.20;;;;;;;;;;5068827;28;20150;-70
2023/04/12 08:15:14;;;;;;;1.88;0.93;;;;;;;;;;5068715;28;20053;-70
2023/04/12 08:17:42;;;;;;;2.03;1.13;;;;;;;;;;5068529;28;20048;-70
2023/04/12 08:20:08;;;;;;;2.70;1.20;;;;;;;;;;5068803;28;20053;-70
2023/04/12 08:22:34;;;;;;;2.28;1.20;;;;;;;;;;5068587;28;20139;-70
2023/04/12 08:25:03;;;;;;;1.70;1.02;;;;;;;;;;5068850;28;20040;-70
2023/04/12 08:27:29;;;;;;;2.97;1.33;;;;;;;;;;5068729;28;20043;-70
2023/04/12 08:29:55;;;;;;;1.17;0.90;;;;;;;;;;5069246;28;20047;-70
2023/04/12 08:32:21;;;;;;;1.35;0.90;;;;;;;;;;5052001;28;20041;-70
2023/04/12 08:34:47;;;;;;;1.70;1.05;;;;;;;;;;5068645;28;20046;-70
2023/04/12 08:37:14;;;;;;;1.55;1.00;;;;;;;;;;5068516;28;20048;-70
2023/04/12 08:39:40;;;;;;;2.35;1.10;;;;;;;;;;5068413;28;20087;-70
2023/04/12 08:42:06;;;;;;;1.88;0.90;;;;;;;;;;5068164;28;20052;-70
2023/04/12 08:44:35;;;;;;;3.25;1.40;;;;;;;;;;5051995;28;20033;-70
2023/04/12 08:47:02;;;;;;;2.22;1.10;;;;;;;;;;5068461;28;20048;-70
2023/04/12 08:49:30;;;;;;;1.67;1.10;;;;;;;;;;5068495;28;20402;-70
2023/04/12 08:51:57;;;;;;;1.13;1.00;;;;;;;;;;5068753;28;20541;-70
2023/04/12 08:54:24;;;;;;;2.40;1.20;;;;;;;;;;5068361;28;20103;-70
2023/04/12 08:56:52;;;;;;;1.60;1.10;;;;;;;;;;5068208;28;20507;-70
2023/04/12 08:59:18;;;;;;;1.40;1.00;;;;;;;;;;5051595;28;20051;-70
2023/04/12 09:01:45;;;;;;;2.25;1.40;;;;;;;;;;5068188;28;20447;-70
2023/04/12 09:04:11;;;;;;;1.52;1.20;;;;;;;;;;5068428;28;20060;-69
2023/04/12 09:06:37;;;;;;;2.85;1.58;;;;;;;;;;5068561;28;20131;-70
2023/04/12 09:09:05;;;;;;;2.20;1.30;;;;;;;;;;5068096;28;20127;-70
2023/04/12 09:11:31;;;;;;;2.30;1.38;;;;;;;;;;5068314;28;20391;-70
2023/04/12 09:13:57;;;;;;;;;;;;;;;;;;5070459;28;20464;-70
2023/04/12 09:16:37;;;;;;;2.28;1.50;;;;;;;;;;5071622;28;19927;-70
2023/04/12 09:19:03;;;;;;;1.52;1.27;;;;;;;;;;5071872;28;20084;-70
2023/04/12 09:21:30;;;;;;;2.28;1.83;;;;;;;;;;5072967;28;20123;-69
2023/04/12 09:24:02;;;;;;;3.28;2.20;;;;;;;;;;5071574;28;20466;-69
2023/04/12 09:26:30;;;;;;;2.58;2.35;;;;;;;;;;5055527;28;20388;-69
2023/04/12 09:28:56;;;;;;;3.05;1.98;;;;;;;;;;5055172;28;20052;-69
2023/04/12 09:31:22;;;;;;;2.00;1.80;;;;;;;;;;5071417;28;20404;-69
2023/04/12 09:33:48;;;;;;;2.75;2.05;;;;;;;;;;5071689;28;20488;-69
2023/04/12 09:36:16;;;;;;;2.75;2.00;;;;;;;;;;5038364;28;20508;-69
2023/04/12 09:38:58;;;;;;;2.85;2.33;;;;;;;;;;5071467;28;20162;-69
2023/04/12 09:41:26;;;;;;;2.10;1.90;;;;;;;;;;5071138;28;20107;-69
2023/04/12 09:43:52;;;;;;;2.65;2.20;;;;;;;;;;5054722;28;20174;-69
2023/04/12 09:46:18;;;;;;;2.03;1.70;;;;;;;;;;5071068;28;20043;-69
2023/04/12 09:48:51;;;;;;;3.17;2.22;;;;;;;;;;5071393;28;20088;-69
2023/04/12 09:51:30;;;;;;;2.08;1.88;;;;;;;;;;5066971;28;20175;-70
2023/04/12 09:54:00;;;;;;;2.90;2.20;;;;;;;;;;5064658;28;20457;-70
2023/04/12 09:56:30;;;;;;;2.17;1.88;;;;;;;;;;5063560;28;20048;-70
2023/04/12 09:59:01;;;;;;;3.65;2.10;;;;;;;;;;5053883;28;20051;-70
2023/04/12 10:01:28;;;;;;;2.42;1.73;;;;;;;;;;5067643;28;20475;-73
2023/04/12 10:03:54;;;;;;;2.10;1.70;;;;;;;;;;5068060;28;20040;-74
2023/04/12 10:06:21;;;;;;;2.22;2.00;;;;;;;;;;5067530;28;20036;-74
2023/04/12 10:08:48;;;;;;;2.88;2.05;;;;;;;;;;5068875;28;20044;-74
2023/04/12 10:11:14;;;;;;;3.35;1.90;;;;;;;;;;5070017;28;20048;-74
2023/04/12 10:13:42;;;;;;;3.78;2.22;;;;;;;;;;5068146;28;20119;-74
2023/04/12 10:16:09;;;;;;;1.98;1.75;;;;;;;;;;5067606;28;20538;-74
2023/04/12 10:18:36;;;;;;;3.55;2.50;;;;;;;;;;5067108;28;20041;-74
2023/04/12 10:21:02;;;;;;;;;;;;;;;;;;5053188;28;20043;-74
2023/04/12 10:23:28;;;;;;;4.03;2.40;;;;;;;;;;5071643;28;19920;-74
2023/04/12 10:25:55;;;;;;;5.53;2.65;;;;;;;;;;5052869;28;20045;-74
2023/04/12 10:28:22;;;;;;;3.75;2.17;;;;;;;;;;5067779;28;20052;-74
2023/04/12 10:30:49;;;;;;;4.15;2.40;;;;;;;;;;5070037;28;20048;-74
2023/04/12 10:33:17;;;;;;;5.28;2.42;;;;;;;;;;5069711;28;20527;-74
2023/04/12 10:35:50;;;;;;;4.57;2.20;;;;;;;;;;5069670;28;20380;-74
2023/04/12 10:38:16;;;;;;;3.97;2.00;;;;;;;;;;5050702;28;20052;-74
2023/04/12 10:41:02;;;;;;;3.60;1.70;;;;;;;;;;5080597;28;20465;-74
2023/04/12 10:43:29;;;;;;;3.97;1.80;;;;;;;;;;5079224;28;20130;-75
2023/04/12 10:45:55;;;;;;;;;;;;;;;;;;5049845;28;20054;-74
2023/04/12 10:48:39;;;;;;;4.93;2.10;;;;;;;;;;5066847;28;19917;-74
2023/04/12 10:51:12;;;;;;;5.40;2.25;;;;;;;;;;5066755;28;20071;-75
2023/04/12 10:53:39;;;;;;;6.82;2.13;;;;;;;;;;5069270;28;20059;-74
2023/04/12 10:56:37;;;;;;;4.38;2.00;;;;;;;;;;5096204;28;20132;-74
2023/04/12 10:59:07;;;;;;;5.07;1.80;;;;;;;;;;5055951;28;20095;-74
2023/04/12 11:01:33;;;;;;;5.05;1.85;;;;;;;;;;5069894;28;20135;-74
2023/04/12 11:04:06;;;;;;;4.50;1.67;;;;;;;;;;5101192;28;20080;-75
2023/04/12 11:06:42;;;;;;;7.05;2.08;;;;;;;;;;5069078;28;20044;-75
2023/04/12 11:09:17;;;;;;;4.03;1.60;;;;;;;;;;5066732;28;20052;-74
2023/04/12 11:11:44;;;;;;;6.97;2.07;;;;;;;;;;5066281;28;20071;-74
2023/04/12 11:14:10;;;;;;;6.53;1.75;;;;;;;;;;5067332;28;20043;-74
2023/04/12 11:16:36;;;;;;;;;;;;;;;;;;5069201;28;20040;-74
2023/04/12 11:19:02;;;;;;;6.10;2.00;;;;;;;;;;5067641;28;20292;-74
2023/04/12 11:21:28;;;;;;;2.13;1.10;;;;;;;;;;5051832;28;20036;-75
2023/04/12 11:23:55;;;;;;;7.10;1.85;;;;;;;;;;5068540;28;20450;-75
2023/04/12 11:26:21;;;;;;;2.08;1.20;;;;;;;;;;5069564;28;20032;-74
2023/04/12 11:28:49;;;;;;;6.32;1.73;;;;;;;;;;5053895;28;20143;-75
2023/04/12 11:31:19;;;;;;;7.05;1.70;;;;;;;;;;5067168;28;20177;-74
2023/04/12 11:33:45;;;;;;;5.82;1.70;;;;;;;;;;5068007;28;20151;-74
2023/04/12 11:36:12;;;;;;;9.70;1.83;;;;;;;;;;5047961;28;20477;-74
2023/04/12 11:38:38;;;;;;;6.15;1.60;;;;;;;;;;5067340;28;20051;-75
2023/04/12 11:41:05;;;;;;;7.75;2.42;;;;;;;;;;5059527;28;20394;-74
2023/04/12 11:43:32;;;;;;;5.72;1.55;;;;;;;;;;5063512;28;20472;-74
2023/04/12 11:45:59;;;;;;;8.27;2.20;;;;;;;;;;5101576;28;20051;-74
2023/04/12 11:48:28;;;;;;;8.13;1.98;;;;;;;;;;5050083;28;20131;-75
2023/04/12 11:50:56;;;;;;;8.52;2.05;;;;;;;;;;5062262;28;20048;-75
2023/04/12 11:53:26;;;;;;;12.13;2.35;;;;;;;;;;5066887;28;20050;-71
2023/04/12 11:55:54;;;;;;;8.25;1.80;;;;;;;;;;5069006;28;20044;-71
2023/04/12 11:58:23;;;;;;;7.85;1.77;;;;;;;;;;5049990;28;20051;-71
2023/04/12 12:00:50;;;;;;;8.43;1.85;;;;;;;;;;5065221;28;20032;-71
2023/04/12 12:03:17;;;;;;;7.68;2.25;;;;;;;;;;5066722;28;20059;-71
2023/04/12 12:05:43;;;;;;;10.93;2.20;;;;;;;;;;5066813;28;20120;-71
2023/04/12 12:08:10;;;;;;;7.93;1.92;;;;;;;;;;5084920;28;20495;-71
2023/04/12 12:10:36;;;;;;;;;;;;;;;;;;5074184;28;20488;-70
2023/04/12 12:13:02;;;;;;;10.75;2.13;;;;;;;;;;5067716;28;19927;-71
2023/04/12 12:15:31;;;;;;;7.55;1.83;;;;;;;;;;5067157;28;20052;-71
2023/04/12 12:17:57;;;;;;;12.65;2.30;;;;;;;;;;5049971;28;20040;-71
2023/04/12 12:20:23;;;;;;;7.25;1.77;;;;;;;;;;5065702;28;20072;-71
2023/04/12 12:22:50;;;;;;;11.25;2.40;;;;;;;;;;5066501;28;20086;-71
2023/04/12 12:25:19;;;;;;;11.48;2.60;;;;;;;;;;5071443;28;20047;-71
2023/04/12 12:27:50;;;;;;;7.45;2.05;;;;;;;;;;5082417;28;20075;-71
2023/04/12 12:30:19;;;;;;;9.65;2.03;;;;;;;;;;5062679;28;20049;-71
2023/04/12 12:32:45;;;;;;;7.80;1.85;;;;;;;;;;5066955;28;20052;-70
2023/04/12 12:35:11;;;;;;;;;;;;;;;;;;5085628;28;20044;-70
2023/04/12 12:37:38;;;;;;;11.15;2.00;;;;;;;;;;5066108;28;19912;-71
2023/04/12 12:40:24;;;;;;;8.80;2.10;;;;;;;;;;5066346;28;20394;-71
2023/04/12 12:42:51;;;;;;;15.30;2.20;;;;;;;;;;5051268;28;20045;-70
2023/04/12 12:45:19;;;;;;;8.15;1.95;;;;;;;;;;5064621;28;20048;-70
2023/04/12 12:47:53;;;;;;;10.55;2.65;;;;;;;;;;5066942;28;20491;-71
2023/04/12 12:50:21;;;;;;;10.32;2.42;;;;;;;;;;5069370;28;20048;-71
2023/04/12 12:52:48;;;;;;;7.50;2.15;;;;;;;;;;5068164;28;20040;-71
2023/04/12 12:55:14;;;;;;;10.90;2.20;;;;;;;;;;5071691;28;20483;-71
2023/04/12 12:57:42;;;;;;;7.80;1.83;;;;;;;;;;5073240;28;20045;-71
2023/04/12 13:00:09;;;;;;;9.60;2.00;;;;;;;;;;5079218;28;20128;-71
2023/04/12 13:02:35;;;;;;;11.18;1.90;;;;;;;;;;5070412;28;20059;-71
2023/04/12 13:05:03;;;;;;;5.63;1.67;;;;;;;;;;5071414;28;20079;-71
2023/04/12 13:07:29;;;;;;;8.95;1.80;;;;;;;;;;5069751;28;20547;-71
2023/04/12 13:09:55;;;;;;;;;;;;;;;;;;5070325;28;20126;-71
2023/04/12 13:12:21;;;;;;;6.75;1.75;;;;;;;;;;5070439;28;19938;-71
2023/04/12 13:14:47;;;;;;;7.45;1.92;;;;;;;;;;5068314;28;20048;-71
2023/04/12 13:17:14;;;;;;;8.68;1.95;;;;;;;;;;5067523;28;20112;-71
2023/04/12 13:19:40;;;;;;;6.35;1.50;;;;;;;;;;5084778;28;20040;-71
2023/04/12 13:22:07;;;;;;;8.85;1.60;;;;;;;;;;5068825;28;20040;-71
2023/04/12 13:24:34;;;;;;;8.65;2.05;;;;;;;;;;5070118;28;20044;-71
2023/04/12 13:27:01;;;;;;;5.75;1.63;;;;;;;;;;5086273;28;20075;-71
2023/04/12 13:29:27;;;;;;;14.43;2.20;;;;;;;;;;5070732;28;20046;-71
2023/04/12 13:31:53;;;;;;;6.78;1.80;;;;;;;;;;5103472;28;20123;-71
2023/04/12 13:34:19;;;;;;;8.43;2.13;;;;;;;;;;5066361;28;20048;-71
2023/04/12 13:36:45;;;;;;;;;;;;;;;;;;5054870;28;20071;-71
2023/04/12 13:39:11;;;;;;;8.68;1.90;;;;;;;;;;5070657;28;19924;-71
2023/04/12 13:41:37;;;;;;;9.35;2.13;;;;;;;;;;5036990;28;20040;-72
2023/04/12 13:44:04;;;;;;;6.50;1.50;;;;;;;;;;5098974;28;20047;-71
2023/04/12 13:46:33;;;;;;;5.53;1.60;;;;;;;;;;5070770;28;20059;-71
2023/04/12 13:48:59;;;;;;;7.57;1.70;;;;;;;;;;5072037;28;20076;-72
2023/04/12 13:51:28;;;;;;;7.80;1.58;;;;;;;;;;5071296;28;20049;-71
2023/04/12 13:53:57;;;;;;;7.60;1.70;;;;;;;;;;5070640;28;20792;-72
2023/04/12 13:56:23;;;;;;;7.63;1.30;;;;;;;;;;5069643;28;20098;-72
2023/04/12 13:58:49;;;;;;;;;;;;;;;;;;5051415;28;20090;-71
2023/04/12 14:01:15;;;;;;;5.25;1.30;;;;;;;;;;5067691;28;19920;-72
2023/04/12 14:03:41;;;;;;;4.20;1.27;;;;;;;;;;5069950;28;20048;-72
2023/04/12 14:06:08;;;;;;;5.28;1.23;;;;;;;;;;5100387;28;20470;-71
2023/04/12 14:08:52;;;;;;;3.97;0.85;;;;;;;;;;5069252;28;20048;-71
2023/04/12 14:11:18;;;;;;;3.05;0.85;;;;;;;;;;5069640;28;20048;-72
2023/04/12 14:13:44;;;;;;;2.97;0.90;;;;;;;;;;5073127;28;20097;-72
2023/04/12 14:16:11;;;;;;;2.63;0.90;;;;;;;;;;5068738;28;20174;-70
2023/04/12 14:18:37;;;;;;;4.03;1.30;;;;;;;;;;5069233;28;20041;-70
2023/04/12 14:21:03;;;;;;;5.75;1.27;;;;;;;;;;5070250;28;20522;-70
2023/04/12 14:23:29;;;;;;;6.38;1.25;;;;;;;;;;5051042;28;20052;-70
2023/04/12 14:25:55;;;;;;;;;;;;;;;;;;5068945;28;20044;-70
2023/04/12 14:28:23;;;;;;;6.80;1.52;;;;;;;;;;5065873;28;19924;-71
2023/04/12 14:30:50;;;;;;;8.07;2.00;;;;;;;;;;5069640;28;20049;-70
2023/04/12 14:33:17;;;;;;;10.00;1.45;;;;;;;;;;5069316;28;20080;-71
2023/04/12 14:35:43;;;;;;;5.75;1.50;;;;;;;;;;5068302;28;20047;-71
2023/04/12 14:38:09;;;;;;;8.02;1.80;;;;;;;;;;5068216;28;20057;-71
2023/04/12 14:40:35;;;;;;;6.85;1.35;;;;;;;;;;5069272;28;20055;-71
2023/04/12 14:43:01;;;;;;;;;;;;;;;;;;5069795;28;20058;-71
2023/04/12 14:45:27;;;;;;;7.90;1.70;;;;;;;;;;5103053;28;20302;-71
2023/04/12 14:47:54;;;;;;;7.40;1.80;;;;;;;;;;5067530;28;20048;-71
2023/04/12 14:50:20;;;;;;;;;;;;;;;;;;5064214;28;20040;-71